Terminal Aerodrome Forecast
Issued by NWS

Home | Current Version | Previous Version | Text Only | Print | Product List | Glossary On
Versions: 1 2 3 4 5 6 7 8 9 10 11 12 13
000
FTUS44 KLIX 220543
TAFMCB
TAF
KMCB 220543Z 2206/2306 16011KT P6SM OVC010
     FM220900 17009KT 5SM BR VCSH OVC008
     FM221200 18009KT 5SM BR OVC008 WS020/19040KT
      TEMPO 2212/2214 2SM TSRA BR OVC005CB
     FM221400 19009KT 4SM SHRA BR OVC010
     FM221700 23008KT P6SM BKN035
     FM222000 27008KT P6SM FEW110=

USA.gov is the U.S. government's official web portal to all federal, state and local government web resources and services.